sensor_id;sensor_type;location;lat;lon;timestamp;P1;durP1;ratioP1;P2;durP2;ratioP2
74309;SDS011;62722;51.142;17.052;2023-10-13T00:01:48;13.20;;;7.00;;
74309;SDS011;62722;51.142;17.052;2023-10-13T00:04:17;13.40;;;7.22;;
74309;SDS011;62722;51.142;17.052;2023-10-13T00:06:50;13.60;;;8.02;;
74309;SDS011;62722;51.142;17.052;2023-10-13T00:09:17;14.27;;;8.15;;
74309;SDS011;62722;51.142;17.052;2023-10-13T00:11:49;23.20;;;9.18;;
74309;SDS011;62722;51.142;17.052;2023-10-13T00:14:17;14.85;;;8.60;;
74309;SDS011;62722;51.142;17.052;2023-10-13T00:16:47;17.45;;;7.93;;
74309;SDS011;62722;51.142;17.052;2023-10-13T00:19:28;14.88;;;7.60;;
74309;SDS011;62722;51.142;17.052;2023-10-13T00:22:03;15.93;;;9.05;;
74309;SDS011;62722;51.142;17.052;2023-10-13T00:24:34;16.73;;;9.15;;
74309;SDS011;62722;51.142;17.052;2023-10-13T00:27:09;17.17;;;9.63;;
74309;SDS011;62722;51.142;17.052;2023-10-13T00:29:50;16.23;;;9.18;;
74309;SDS011;62722;51.142;17.052;2023-10-13T00:32:30;16.35;;;7.57;;
74309;SDS011;62722;51.142;17.052;2023-10-13T00:34:58;12.68;;;7.88;;
74309;SDS011;62722;51.142;17.052;2023-10-13T00:37:31;14.00;;;7.85;;
74309;SDS011;62722;51.142;17.052;2023-10-13T00:40:07;16.40;;;8.13;;
74309;SDS011;62722;51.142;17.052;2023-10-13T00:42:51;17.15;;;8.27;;
74309;SDS011;62722;51.142;17.052;2023-10-13T00:45:19;14.85;;;8.32;;
74309;SDS011;62722;51.142;17.052;2023-10-13T00:47:45;14.63;;;8.13;;
74309;SDS011;62722;51.142;17.052;2023-10-13T00:50:16;19.65;;;8.45;;
74309;SDS011;62722;51.142;17.052;2023-10-13T00:52:44;14.13;;;8.35;;
74309;SDS011;62722;51.142;17.052;2023-10-13T00:55:16;15.48;;;8.65;;
74309;SDS011;62722;51.142;17.052;2023-10-13T00:57:49;15.18;;;8.77;;
74309;SDS011;62722;51.142;17.052;2023-10-13T01:00:19;15.38;;;7.53;;
74309;SDS011;62722;51.142;17.052;2023-10-13T01:02:54;15.25;;;8.52;;
74309;SDS011;62722;51.142;17.052;2023-10-13T01:05:31;15.13;;;7.60;;
74309;SDS011;62722;51.142;17.052;2023-10-13T01:08:00;16.75;;;8.65;;
74309;SDS011;62722;51.142;17.052;2023-10-13T01:10:26;13.80;;;7.65;;
74309;SDS011;62722;51.142;17.052;2023-10-13T01:13:00;14.23;;;8.82;;
74309;SDS011;62722;51.142;17.052;2023-10-13T01:15:29;11.60;;;7.68;;
74309;SDS011;62722;51.142;17.052;2023-10-13T01:18:08;14.50;;;7.57;;
74309;SDS011;62722;51.142;17.052;2023-10-13T01:23:11;15.82;;;7.95;;
74309;SDS011;62722;51.142;17.052;2023-10-13T01:25:43;13.52;;;7.63;;
74309;SDS011;62722;51.142;17.052;2023-10-13T01:28:11;17.73;;;9.23;;
74309;SDS011;62722;51.142;17.052;2023-10-13T01:30:41;15.32;;;8.93;;
74309;SDS011;62722;51.142;17.052;2023-10-13T01:33:08;15.18;;;9.95;;
74309;SDS011;62722;51.142;17.052;2023-10-13T01:35:36;17.92;;;10.00;;
74309;SDS011;62722;51.142;17.052;2023-10-13T01:38:10;17.25;;;9.52;;
74309;SDS011;62722;51.142;17.052;2023-10-13T01:40:37;16.30;;;9.38;;
74309;SDS011;62722;51.142;17.052;2023-10-13T01:43:04;16.80;;;9.60;;
74309;SDS011;62722;51.142;17.052;2023-10-13T01:45:36;17.55;;;10.07;;
74309;SDS011;62722;51.142;17.052;2023-10-13T01:48:12;19.60;;;9.77;;
74309;SDS011;62722;51.142;17.052;2023-10-13T01:50:41;22.77;;;9.27;;
74309;SDS011;62722;51.142;17.052;2023-10-13T01:53:14;19.63;;;9.57;;
74309;SDS011;62722;51.142;17.052;2023-10-13T01:55:43;18.33;;;8.85;;
74309;SDS011;62722;51.142;17.052;2023-10-13T01:58:10;18.77;;;9.48;;
74309;SDS011;62722;51.142;17.052;2023-10-13T02:00:40;16.67;;;10.23;;
74309;SDS011;62722;51.142;17.052;2023-10-13T02:03:08;21.83;;;9.50;;
74309;SDS011;62722;51.142;17.052;2023-10-13T02:05:41;17.08;;;8.95;;
74309;SDS011;62722;51.142;17.052;2023-10-13T02:08:13;20.58;;;9.55;;
74309;SDS011;62722;51.142;17.052;2023-10-13T02:10:45;17.23;;;9.55;;
74309;SDS011;62722;51.142;17.052;2023-10-13T02:13:13;18.40;;;10.38;;
74309;SDS011;62722;51.142;17.052;2023-10-13T02:15:41;18.05;;;9.93;;
74309;SDS011;62722;51.142;17.052;2023-10-13T02:18:28;18.13;;;10.55;;
74309;SDS011;62722;51.142;17.052;2023-10-13T02:21:02;21.80;;;10.95;;
74309;SDS011;62722;51.142;17.052;2023-10-13T02:23:30;19.25;;;10.70;;
74309;SDS011;62722;51.142;17.052;2023-10-13T02:26:00;20.52;;;11.27;;
74309;SDS011;62722;51.142;17.052;2023-10-13T02:28:28;20.88;;;11.23;;
74309;SDS011;62722;51.142;17.052;2023-10-13T02:31:01;21.63;;;11.05;;
74309;SDS011;62722;51.142;17.052;2023-10-13T02:33:28;20.75;;;10.27;;
74309;SDS011;62722;51.142;17.052;2023-10-13T02:35:56;18.83;;;11.25;;
74309;SDS011;62722;51.142;17.052;2023-10-13T02:38:22;17.95;;;10.55;;
74309;SDS011;62722;51.142;17.052;2023-10-13T02:40:58;19.48;;;10.38;;
74309;SDS011;62722;51.142;17.052;2023-10-13T02:43:33;21.00;;;11.10;;
74309;SDS011;62722;51.142;17.052;2023-10-13T02:46:01;19.80;;;10.73;;
74309;SDS011;62722;51.142;17.052;2023-10-13T02:48:27;20.75;;;10.80;;
74309;SDS011;62722;51.142;17.052;2023-10-13T02:51:08;19.15;;;10.82;;
74309;SDS011;62722;51.142;17.052;2023-10-13T02:53:42;18.05;;;9.50;;
74309;SDS011;62722;51.142;17.052;2023-10-13T02:56:14;16.20;;;9.15;;
74309;SDS011;62722;51.142;17.052;2023-10-13T02:58:48;16.50;;;10.02;;
74309;SDS011;62722;51.142;17.052;2023-10-13T03:01:19;17.13;;;9.38;;
74309;SDS011;62722;51.142;17.052;2023-10-13T03:03:48;17.95;;;9.35;;
74309;SDS011;62722;51.142;17.052;2023-10-13T03:06:17;16.27;;;9.27;;
74309;SDS011;62722;51.142;17.052;2023-10-13T03:08:47;18.83;;;9.98;;
74309;SDS011;62722;51.142;17.052;2023-10-13T03:11:14;17.88;;;9.27;;
74309;SDS011;62722;51.142;17.052;2023-10-13T03:13:47;18.23;;;9.55;;
74309;SDS011;62722;51.142;17.052;2023-10-13T03:16:14;17.25;;;9.35;;
74309;SDS011;62722;51.142;17.052;2023-10-13T03:18:43;19.98;;;10.13;;
74309;SDS011;62722;51.142;17.052;2023-10-13T03:21:23;15.32;;;9.05;;
74309;SDS011;62722;51.142;17.052;2023-10-13T03:23:57;15.52;;;9.88;;
74309;SDS011;62722;51.142;17.052;2023-10-13T03:26:30;16.55;;;9.40;;
74309;SDS011;62722;51.142;17.052;2023-10-13T03:29:01;16.58;;;9.60;;
74309;SDS011;62722;51.142;17.052;2023-10-13T03:31:29;18.70;;;9.48;;
74309;SDS011;62722;51.142;17.052;2023-10-13T03:34:03;15.57;;;9.20;;
74309;SDS011;62722;51.142;17.052;2023-10-13T03:36:37;16.10;;;9.07;;
74309;SDS011;62722;51.142;17.052;2023-10-13T03:39:23;16.30;;;8.77;;
74309;SDS011;62722;51.142;17.052;2023-10-13T03:41:56;15.88;;;9.13;;
74309;SDS011;62722;51.142;17.052;2023-10-13T03:44:26;15.77;;;9.52;;
74309;SDS011;62722;51.142;17.052;2023-10-13T03:49:22;17.40;;;8.98;;
74309;SDS011;62722;51.142;17.052;2023-10-13T03:51:51;15.85;;;8.55;;
74309;SDS011;62722;51.142;17.052;2023-10-13T03:54:20;15.15;;;9.27;;
74309;SDS011;62722;51.142;17.052;2023-10-13T03:56:47;15.85;;;9.80;;
74309;SDS011;62722;51.142;17.052;2023-10-13T03:59:17;13.07;;;8.40;;
74309;SDS011;62722;51.142;17.052;2023-10-13T04:01:46;15.60;;;9.00;;
74309;SDS011;62722;51.142;17.052;2023-10-13T04:04:24;18.02;;;9.15;;
74309;SDS011;62722;51.142;17.052;2023-10-13T04:07:00;16.02;;;9.05;;
74309;SDS011;62722;51.142;17.052;2023-10-13T04:09:49;15.90;;;9.43;;
74309;SDS011;62722;51.142;17.052;2023-10-13T04:12:34;16.35;;;10.05;;
74309;SDS011;62722;51.142;17.052;2023-10-13T04:17:51;16.08;;;9.65;;
74309;SDS011;62722;51.142;17.052;2023-10-13T04:20:23;14.30;;;9.30;;
74309;SDS011;62722;51.142;17.052;2023-10-13T04:23:10;18.48;;;9.70;;
74309;SDS011;62722;51.142;17.052;2023-10-13T04:25:51;16.67;;;9.80;;
74309;SDS011;62722;51.142;17.052;2023-10-13T04:28:38;16.85;;;10.20;;
74309;SDS011;62722;51.142;17.052;2023-10-13T04:33:52;15.05;;;9.57;;
74309;SDS011;62722;51.142;17.052;2023-10-13T04:36:27;18.42;;;10.85;;
74309;SDS011;62722;51.142;17.052;2023-10-13T04:39:10;19.58;;;10.13;;
74309;SDS011;62722;51.142;17.052;2023-10-13T04:41:42;18.13;;;10.18;;
74309;SDS011;62722;51.142;17.052;2023-10-13T04:44:09;17.80;;;9.38;;
74309;SDS011;62722;51.142;17.052;2023-10-13T04:46:54;17.35;;;9.73;;
74309;SDS011;62722;51.142;17.052;2023-10-13T04:49:40;15.98;;;9.85;;
74309;SDS011;62722;51.142;17.052;2023-10-13T04:52:17;20.08;;;10.20;;
74309;SDS011;62722;51.142;17.052;2023-10-13T04:54:58;17.10;;;9.90;;
74309;SDS011;62722;51.142;17.052;2023-10-13T04:57:37;18.33;;;10.43;;
74309;SDS011;62722;51.142;17.052;2023-10-13T05:00:13;18.17;;;10.20;;
74309;SDS011;62722;51.142;17.052;2023-10-13T05:02:57;19.27;;;11.10;;
74309;SDS011;62722;51.142;17.052;2023-10-13T05:05:44;17.38;;;9.65;;
74309;SDS011;62722;51.142;17.052;2023-10-13T05:08:31;20.15;;;10.20;;
74309;SDS011;62722;51.142;17.052;2023-10-13T05:11:16;17.48;;;10.07;;
74309;SDS011;62722;51.142;17.052;2023-10-13T05:14:00;19.45;;;11.07;;
74309;SDS011;62722;51.142;17.052;2023-10-13T05:16:45;16.98;;;10.75;;
74309;SDS011;62722;51.142;17.052;2023-10-13T05:19:29;17.70;;;10.27;;
74309;SDS011;62722;51.142;17.052;2023-10-13T05:22:15;19.50;;;12.00;;
74309;SDS011;62722;51.142;17.052;2023-10-13T05:25:00;21.15;;;11.45;;
74309;SDS011;62722;51.142;17.052;2023-10-13T05:27:44;18.73;;;10.85;;
74309;SDS011;62722;51.142;17.052;2023-10-13T05:30:29;17.73;;;10.73;;
74309;SDS011;62722;51.142;17.052;2023-10-13T05:33:13;15.93;;;10.13;;
74309;SDS011;62722;51.142;17.052;2023-10-13T05:35:58;16.73;;;9.82;;
74309;SDS011;62722;51.142;17.052;2023-10-13T05:38:44;17.83;;;10.25;;
74309;SDS011;62722;51.142;17.052;2023-10-13T05:41:28;19.27;;;10.80;;
74309;SDS011;62722;51.142;17.052;2023-10-13T05:44:13;19.35;;;10.10;;
74309;SDS011;62722;51.142;17.052;2023-10-13T05:46:56;17.27;;;10.65;;
74309;SDS011;62722;51.142;17.052;2023-10-13T05:49:38;19.27;;;11.00;;
74309;SDS011;62722;51.142;17.052;2023-10-13T05:52:19;21.55;;;11.30;;
74309;SDS011;62722;51.142;17.052;2023-10-13T05:54:48;17.83;;;10.82;;
74309;SDS011;62722;51.142;17.052;2023-10-13T05:57:32;22.95;;;12.73;;
74309;SDS011;62722;51.142;17.052;2023-10-13T06:00:18;21.33;;;12.30;;
74309;SDS011;62722;51.142;17.052;2023-10-13T06:03:03;24.98;;;12.75;;
74309;SDS011;62722;51.142;17.052;2023-10-13T06:05:48;20.92;;;10.98;;
74309;SDS011;62722;51.142;17.052;2023-10-13T06:08:40;21.77;;;13.00;;
74309;SDS011;62722;51.142;17.052;2023-10-13T06:11:27;17.58;;;11.10;;
74309;SDS011;62722;51.142;17.052;2023-10-13T06:14:11;25.05;;;13.38;;
74309;SDS011;62722;51.142;17.052;2023-10-13T06:16:56;27.23;;;13.82;;
74309;SDS011;62722;51.142;17.052;2023-10-13T06:19:40;26.27;;;12.35;;
74309;SDS011;62722;51.142;17.052;2023-10-13T06:22:25;26.15;;;14.05;;
74309;SDS011;62722;51.142;17.052;2023-10-13T06:25:09;29.08;;;13.57;;
74309;SDS011;62722;51.142;17.052;2023-10-13T06:27:55;29.05;;;15.20;;
74309;SDS011;62722;51.142;17.052;2023-10-13T06:30:39;23.70;;;12.50;;
74309;SDS011;62722;51.142;17.052;2023-10-13T06:33:06;21.30;;;12.50;;
74309;SDS011;62722;51.142;17.052;2023-10-13T06:35:36;25.75;;;12.38;;
74309;SDS011;62722;51.142;17.052;2023-10-13T06:38:04;23.10;;;12.77;;
74309;SDS011;62722;51.142;17.052;2023-10-13T06:40:35;23.08;;;12.20;;
74309;SDS011;62722;51.142;17.052;2023-10-13T06:43:06;22.15;;;13.02;;
74309;SDS011;62722;51.142;17.052;2023-10-13T06:45:42;22.80;;;12.48;;
74309;SDS011;62722;51.142;17.052;2023-10-13T06:48:09;21.92;;;11.88;;
74309;SDS011;62722;51.142;17.052;2023-10-13T06:50:39;25.45;;;12.32;;
74309;SDS011;62722;51.142;17.052;2023-10-13T06:53:07;20.88;;;13.15;;
74309;SDS011;62722;51.142;17.052;2023-10-13T06:55:37;21.45;;;12.57;;
74309;SDS011;62722;51.142;17.052;2023-10-13T06:58:07;22.75;;;12.43;;
74309;SDS011;62722;51.142;17.052;2023-10-13T07:00:39;23.48;;;12.38;;
74309;SDS011;62722;51.142;17.052;2023-10-13T07:03:18;24.52;;;12.93;;
74309;SDS011;62722;51.142;17.052;2023-10-13T07:05:46;24.05;;;14.02;;
74309;SDS011;62722;51.142;17.052;2023-10-13T07:08:15;22.60;;;13.23;;
74309;SDS011;62722;51.142;17.052;2023-10-13T07:10:47;26.50;;;14.05;;
74309;SDS011;62722;51.142;17.052;2023-10-13T07:13:18;22.77;;;13.10;;
74309;SDS011;62722;51.142;17.052;2023-10-13T07:15:47;23.80;;;13.18;;
74309;SDS011;62722;51.142;17.052;2023-10-13T07:18:15;24.30;;;13.45;;
74309;SDS011;62722;51.142;17.052;2023-10-13T07:20:42;24.05;;;13.30;;
74309;SDS011;62722;51.142;17.052;2023-10-13T07:23:13;23.75;;;12.32;;
74309;SDS011;62722;51.142;17.052;2023-10-13T07:25:51;22.70;;;12.73;;
74309;SDS011;62722;51.142;17.052;2023-10-13T07:28:20;22.48;;;12.65;;
74309;SDS011;62722;51.142;17.052;2023-10-13T07:30:47;23.83;;;13.48;;
74309;SDS011;62722;51.142;17.052;2023-10-13T07:33:38;21.88;;;12.80;;
74309;SDS011;62722;51.142;17.052;2023-10-13T07:36:06;21.67;;;11.90;;
74309;SDS011;62722;51.142;17.052;2023-10-13T07:38:41;21.58;;;12.50;;
74309;SDS011;62722;51.142;17.052;2023-10-13T07:41:09;21.08;;;12.00;;
74309;SDS011;62722;51.142;17.052;2023-10-13T07:43:42;21.48;;;11.88;;
74309;SDS011;62722;51.142;17.052;2023-10-13T07:46:11;21.95;;;12.40;;
74309;SDS011;62722;51.142;17.052;2023-10-13T07:48:38;18.50;;;11.18;;
74309;SDS011;62722;51.142;17.052;2023-10-13T07:53:41;21.02;;;11.80;;
74309;SDS011;62722;51.142;17.052;2023-10-13T07:56:09;17.73;;;9.55;;
74309;SDS011;62722;51.142;17.052;2023-10-13T07:58:37;20.15;;;10.30;;
74309;SDS011;62722;51.142;17.052;2023-10-13T08:01:17;19.92;;;11.65;;
74309;SDS011;62722;51.142;17.052;2023-10-13T08:03:44;18.20;;;10.75;;
74309;SDS011;62722;51.142;17.052;2023-10-13T08:06:12;20.30;;;10.95;;
74309;SDS011;62722;51.142;17.052;2023-10-13T08:08:54;21.13;;;11.00;;
74309;SDS011;62722;51.142;17.052;2023-10-13T08:11:31;19.15;;;10.52;;
74309;SDS011;62722;51.142;17.052;2023-10-13T08:14:01;23.33;;;10.90;;
74309;SDS011;62722;51.142;17.052;2023-10-13T08:16:38;16.80;;;9.23;;
74309;SDS011;62722;51.142;17.052;2023-10-13T08:19:18;16.92;;;10.38;;
74309;SDS011;62722;51.142;17.052;2023-10-13T08:21:47;17.63;;;9.82;;
74309;SDS011;62722;51.142;17.052;2023-10-13T08:24:17;18.45;;;11.13;;
74309;SDS011;62722;51.142;17.052;2023-10-13T08:26:53;17.60;;;10.13;;
74309;SDS011;62722;51.142;17.052;2023-10-13T08:29:23;17.73;;;10.15;;
74309;SDS011;62722;51.142;17.052;2023-10-13T08:32:09;16.98;;;9.90;;
74309;SDS011;62722;51.142;17.052;2023-10-13T08:35:01;18.70;;;10.57;;
74309;SDS011;62722;51.142;17.052;2023-10-13T08:37:48;19.20;;;11.02;;
74309;SDS011;62722;51.142;17.052;2023-10-13T08:40:29;16.98;;;10.60;;
74309;SDS011;62722;51.142;17.052;2023-10-13T08:43:22;16.10;;;9.60;;
74309;SDS011;62722;51.142;17.052;2023-10-13T08:45:50;17.13;;;9.57;;
74309;SDS011;62722;51.142;17.052;2023-10-13T08:48:25;17.23;;;10.63;;
74309;SDS011;62722;51.142;17.052;2023-10-13T08:50:58;17.50;;;10.48;;
74309;SDS011;62722;51.142;17.052;2023-10-13T08:53:37;15.90;;;9.60;;
74309;SDS011;62722;51.142;17.052;2023-10-13T08:56:17;21.25;;;10.23;;
74309;SDS011;62722;51.142;17.052;2023-10-13T08:58:44;21.25;;;10.70;;
74309;SDS011;62722;51.142;17.052;2023-10-13T09:01:32;18.83;;;10.02;;
74309;SDS011;62722;51.142;17.052;2023-10-13T09:04:06;16.15;;;8.95;;
74309;SDS011;62722;51.142;17.052;2023-10-13T09:06:49;16.55;;;8.68;;
74309;SDS011;62722;51.142;17.052;2023-10-13T09:09:34;15.00;;;8.23;;
74309;SDS011;62722;51.142;17.052;2023-10-13T09:12:01;15.00;;;8.20;;
74309;SDS011;62722;51.142;17.052;2023-10-13T09:14:35;11.95;;;7.32;;
74309;SDS011;62722;51.142;17.052;2023-10-13T09:17:05;12.00;;;6.80;;
74309;SDS011;62722;51.142;17.052;2023-10-13T09:19:49;11.65;;;7.10;;
74309;SDS011;62722;51.142;17.052;2023-10-13T09:22:21;8.98;;;6.43;;
74309;SDS011;62722;51.142;17.052;2023-10-13T09:24:54;8.85;;;5.85;;
74309;SDS011;62722;51.142;17.052;2023-10-13T09:27:24;11.38;;;6.75;;
74309;SDS011;62722;51.142;17.052;2023-10-13T09:29:56;9.15;;;6.47;;
74309;SDS011;62722;51.142;17.052;2023-10-13T09:32:23;10.25;;;6.78;;
74309;SDS011;62722;51.142;17.052;2023-10-13T09:34:50;11.20;;;6.65;;
74309;SDS011;62722;51.142;17.052;2023-10-13T09:37:19;12.05;;;6.68;;
74309;SDS011;62722;51.142;17.052;2023-10-13T09:39:47;9.98;;;5.82;;
74309;SDS011;62722;51.142;17.052;2023-10-13T09:42:18;9.73;;;5.43;;
74309;SDS011;62722;51.142;17.052;2023-10-13T09:44:45;11.45;;;6.28;;
74309;SDS011;62722;51.142;17.052;2023-10-13T09:47:20;10.18;;;5.72;;
74309;SDS011;62722;51.142;17.052;2023-10-13T09:49:51;6.35;;;4.63;;
74309;SDS011;62722;51.142;17.052;2023-10-13T09:52:23;7.85;;;4.60;;
74309;SDS011;62722;51.142;17.052;2023-10-13T09:54:53;8.27;;;5.00;;
74309;SDS011;62722;51.142;17.052;2023-10-13T09:57:31;7.40;;;5.40;;
74309;SDS011;62722;51.142;17.052;2023-10-13T10:00:06;6.80;;;4.70;;
74309;SDS011;62722;51.142;17.052;2023-10-13T10:02:53;8.30;;;5.50;;
74309;SDS011;62722;51.142;17.052;2023-10-13T10:05:25;8.48;;;6.03;;
74309;SDS011;62722;51.142;17.052;2023-10-13T10:07:55;8.43;;;5.35;;
74309;SDS011;62722;51.142;17.052;2023-10-13T10:10:26;7.25;;;5.53;;
74309;SDS011;62722;51.142;17.052;2023-10-13T10:12:54;6.75;;;4.57;;
74309;SDS011;62722;51.142;17.052;2023-10-13T10:15:26;9.25;;;5.68;;
74309;SDS011;62722;51.142;17.052;2023-10-13T10:17:59;7.00;;;5.00;;
74309;SDS011;62722;51.142;17.052;2023-10-13T10:20:31;9.60;;;6.22;;
74309;SDS011;62722;51.142;17.052;2023-10-13T10:23:07;9.48;;;5.55;;
74309;SDS011;62722;51.142;17.052;2023-10-13T10:25:40;10.75;;;5.72;;
74309;SDS011;62722;51.142;17.052;2023-10-13T10:28:10;9.20;;;5.45;;
74309;SDS011;62722;51.142;17.052;2023-10-13T10:30:41;10.20;;;5.75;;
74309;SDS011;62722;51.142;17.052;2023-10-13T10:33:09;10.27;;;6.00;;
74309;SDS011;62722;51.142;17.052;2023-10-13T10:35:41;7.95;;;4.90;;
74309;SDS011;62722;51.142;17.052;2023-10-13T10:38:08;6.82;;;4.75;;
74309;SDS011;62722;51.142;17.052;2023-10-13T10:40:51;6.88;;;4.75;;
74309;SDS011;62722;51.142;17.052;2023-10-13T10:43:23;9.13;;;5.53;;
74309;SDS011;62722;51.142;17.052;2023-10-13T10:45:52;7.25;;;4.88;;
74309;SDS011;62722;51.142;17.052;2023-10-13T10:48:25;7.53;;;4.63;;
74309;SDS011;62722;51.142;17.052;2023-10-13T10:50:58;7.68;;;5.03;;
74309;SDS011;62722;51.142;17.052;2023-10-13T10:53:33;6.50;;;5.00;;
74309;SDS011;62722;51.142;17.052;2023-10-13T10:56:09;7.93;;;4.90;;
74309;SDS011;62722;51.142;17.052;2023-10-13T10:58:45;7.13;;;5.22;;
74309;SDS011;62722;51.142;17.052;2023-10-13T11:01:12;7.30;;;5.18;;
74309;SDS011;62722;51.142;17.052;2023-10-13T11:03:52;8.55;;;5.13;;
74309;SDS011;62722;51.142;17.052;2023-10-13T11:06:24;7.32;;;5.00;;
74309;SDS011;62722;51.142;17.052;2023-10-13T11:09:01;7.40;;;4.55;;
74309;SDS011;62722;51.142;17.052;2023-10-13T11:11:30;10.43;;;5.22;;
74309;SDS011;62722;51.142;17.052;2023-10-13T11:14:01;7.57;;;4.53;;
74309;SDS011;62722;51.142;17.052;2023-10-13T11:16:46;6.00;;;4.78;;
74309;SDS011;62722;51.142;17.052;2023-10-13T11:19:16;6.43;;;4.65;;
74309;SDS011;62722;51.142;17.052;2023-10-13T11:21:47;7.28;;;4.90;;
74309;SDS011;62722;51.142;17.052;2023-10-13T11:24:14;8.45;;;5.00;;
74309;SDS011;62722;51.142;17.052;2023-10-13T11:26:43;8.55;;;5.28;;
74309;SDS011;62722;51.142;17.052;2023-10-13T11:29:15;8.75;;;4.50;;
74309;SDS011;62722;51.142;17.052;2023-10-13T11:31:45;8.18;;;4.53;;
74309;SDS011;62722;51.142;17.052;2023-10-13T11:34:13;6.18;;;4.20;;
74309;SDS011;62722;51.142;17.052;2023-10-13T11:36:43;7.57;;;4.30;;
74309;SDS011;62722;51.142;17.052;2023-10-13T11:39:12;6.75;;;4.05;;
74309;SDS011;62722;51.142;17.052;2023-10-13T11:41:44;7.70;;;4.68;;
74309;SDS011;62722;51.142;17.052;2023-10-13T11:44:19;6.57;;;4.88;;
74309;SDS011;62722;51.142;17.052;2023-10-13T11:46:57;7.07;;;4.05;;
74309;SDS011;62722;51.142;17.052;2023-10-13T11:49:42;5.15;;;3.80;;
74309;SDS011;62722;51.142;17.052;2023-10-13T11:52:09;11.75;;;5.28;;
74309;SDS011;62722;51.142;17.052;2023-10-13T11:54:52;7.38;;;4.28;;
74309;SDS011;62722;51.142;17.052;2023-10-13T11:57:19;6.53;;;4.43;;
74309;SDS011;62722;51.142;17.052;2023-10-13T11:59:47;7.63;;;4.10;;
74309;SDS011;62722;51.142;17.052;2023-10-13T12:02:21;6.05;;;4.03;;
74309;SDS011;62722;51.142;17.052;2023-10-13T12:05:06;4.63;;;3.70;;
74309;SDS011;62722;51.142;17.052;2023-10-13T12:07:52;5.13;;;3.53;;
74309;SDS011;62722;51.142;17.052;2023-10-13T12:10:30;5.13;;;3.47;;
74309;SDS011;62722;51.142;17.052;2023-10-13T12:13:04;5.65;;;3.25;;
74309;SDS011;62722;51.142;17.052;2023-10-13T12:15:36;4.22;;;2.80;;
74309;SDS011;62722;51.142;17.052;2023-10-13T12:18:17;5.13;;;3.53;;
74309;SDS011;62722;51.142;17.052;2023-10-13T12:20:44;5.30;;;2.90;;
74309;SDS011;62722;51.142;17.052;2023-10-13T12:23:13;6.07;;;3.15;;
74309;SDS011;62722;51.142;17.052;2023-10-13T12:25:46;4.88;;;2.97;;
74309;SDS011;62722;51.142;17.052;2023-10-13T12:28:25;5.88;;;2.72;;
74309;SDS011;62722;51.142;17.052;2023-10-13T12:30:54;7.68;;;2.72;;
74309;SDS011;62722;51.142;17.052;2023-10-13T12:33:23;6.43;;;3.30;;
74309;SDS011;62722;51.142;17.052;2023-10-13T12:35:55;5.10;;;3.00;;
74309;SDS011;62722;51.142;17.052;2023-10-13T12:38:35;5.82;;;3.22;;
74309;SDS011;62722;51.142;17.052;2023-10-13T12:41:38;4.53;;;3.10;;
74309;SDS011;62722;51.142;17.052;2023-10-13T12:44:23;6.20;;;3.17;;
74309;SDS011;62722;51.142;17.052;2023-10-13T12:47:08;6.88;;;3.30;;
74309;SDS011;62722;51.142;17.052;2023-10-13T12:49:53;3.97;;;3.03;;
74309;SDS011;62722;51.142;17.052;2023-10-13T12:52:33;8.77;;;3.03;;
74309;SDS011;62722;51.142;17.052;2023-10-13T12:55:00;4.57;;;3.22;;
74309;SDS011;62722;51.142;17.052;2023-10-13T12:57:36;7.78;;;3.88;;
74309;SDS011;62722;51.142;17.052;2023-10-13T13:00:10;5.68;;;3.17;;
74309;SDS011;62722;51.142;17.052;2023-10-13T13:02:46;5.82;;;3.35;;
74309;SDS011;62722;51.142;17.052;2023-10-13T13:05:16;7.18;;;4.32;;
74309;SDS011;62722;51.142;17.052;2023-10-13T13:10:18;5.43;;;3.60;;
74309;SDS011;62722;51.142;17.052;2023-10-13T13:12:48;6.28;;;3.40;;
74309;SDS011;62722;51.142;17.052;2023-10-13T13:15:16;4.78;;;3.22;;
74309;SDS011;62722;51.142;17.052;2023-10-13T13:17:49;6.57;;;3.70;;
74309;SDS011;62722;51.142;17.052;2023-10-13T13:20:16;5.40;;;3.70;;
74309;SDS011;62722;51.142;17.052;2023-10-13T13:22:53;9.70;;;3.75;;
74309;SDS011;62722;51.142;17.052;2023-10-13T13:25:21;5.90;;;3.85;;
74309;SDS011;62722;51.142;17.052;2023-10-13T13:27:57;5.55;;;3.90;;
74309;SDS011;62722;51.142;17.052;2023-10-13T13:30:24;7.25;;;3.42;;
74309;SDS011;62722;51.142;17.052;2023-10-13T13:32:59;6.43;;;3.83;;
74309;SDS011;62722;51.142;17.052;2023-10-13T13:35:29;5.47;;;3.58;;
74309;SDS011;62722;51.142;17.052;2023-10-13T13:38:00;5.05;;;3.63;;
74309;SDS011;62722;51.142;17.052;2023-10-13T13:40:38;7.05;;;3.65;;
74309;SDS011;62722;51.142;17.052;2023-10-13T13:43:07;4.07;;;3.33;;
74309;SDS011;62722;51.142;17.052;2023-10-13T13:45:44;6.25;;;3.55;;
74309;SDS011;62722;51.142;17.052;2023-10-13T13:48:11;4.80;;;3.15;;
74309;SDS011;62722;51.142;17.052;2023-10-13T13:50:41;6.30;;;3.40;;
74309;SDS011;62722;51.142;17.052;2023-10-13T13:53:10;5.15;;;3.40;;
74309;SDS011;62722;51.142;17.052;2023-10-13T13:55:37;6.45;;;3.80;;
74309;SDS011;62722;51.142;17.052;2023-10-13T13:58:06;5.93;;;3.55;;
74309;SDS011;62722;51.142;17.052;2023-10-13T14:00:38;7.32;;;3.92;;
74309;SDS011;62722;51.142;17.052;2023-10-13T14:03:11;7.43;;;3.55;;
74309;SDS011;62722;51.142;17.052;2023-10-13T14:05:56;6.95;;;3.72;;
74309;SDS011;62722;51.142;17.052;2023-10-13T14:08:24;6.65;;;3.63;;
74309;SDS011;62722;51.142;17.052;2023-10-13T14:10:53;5.50;;;3.70;;
74309;SDS011;62722;51.142;17.052;2023-10-13T14:13:39;6.20;;;3.65;;
74309;SDS011;62722;51.142;17.052;2023-10-13T14:18:49;5.90;;;3.15;;
74309;SDS011;62722;51.142;17.052;2023-10-13T14:21:16;7.72;;;3.40;;
74309;SDS011;62722;51.142;17.052;2023-10-13T14:23:44;4.65;;;3.03;;
74309;SDS011;62722;51.142;17.052;2023-10-13T14:26:15;6.30;;;3.13;;
74309;SDS011;62722;51.142;17.052;2023-10-13T14:28:47;5.15;;;3.20;;
74309;SDS011;62722;51.142;17.052;2023-10-13T14:31:18;5.10;;;3.10;;
74309;SDS011;62722;51.142;17.052;2023-10-13T14:33:45;4.43;;;3.35;;
74309;SDS011;62722;51.142;17.052;2023-10-13T14:36:13;6.05;;;3.17;;
74309;SDS011;62722;51.142;17.052;2023-10-13T14:38:45;6.85;;;3.35;;
74309;SDS011;62722;51.142;17.052;2023-10-13T14:41:15;6.00;;;3.00;;
74309;SDS011;62722;51.142;17.052;2023-10-13T14:43:43;4.50;;;3.03;;
74309;SDS011;62722;51.142;17.052;2023-10-13T14:46:15;7.25;;;3.55;;
74309;SDS011;62722;51.142;17.052;2023-10-13T14:48:43;6.28;;;3.45;;
74309;SDS011;62722;51.142;17.052;2023-10-13T14:51:10;6.82;;;3.22;;
74309;SDS011;62722;51.142;17.052;2023-10-13T14:53:39;6.18;;;3.80;;
74309;SDS011;62722;51.142;17.052;2023-10-13T14:58:35;6.40;;;3.33;;
74309;SDS011;62722;51.142;17.052;2023-10-13T15:01:11;8.63;;;3.75;;
74309;SDS011;62722;51.142;17.052;2023-10-13T15:03:42;6.93;;;3.50;;
74309;SDS011;62722;51.142;17.052;2023-10-13T15:06:14;4.78;;;3.13;;
74309;SDS011;62722;51.142;17.052;2023-10-13T15:08:43;6.57;;;3.60;;
74309;SDS011;62722;51.142;17.052;2023-10-13T15:11:11;8.73;;;4.20;;
74309;SDS011;62722;51.142;17.052;2023-10-13T15:13:39;7.05;;;3.70;;
74309;SDS011;62722;51.142;17.052;2023-10-13T15:16:13;9.73;;;3.88;;
74309;SDS011;62722;51.142;17.052;2023-10-13T15:18:44;6.13;;;3.83;;
74309;SDS011;62722;51.142;17.052;2023-10-13T15:21:11;6.95;;;5.32;;
74309;SDS011;62722;51.142;17.052;2023-10-13T15:23:38;7.10;;;4.13;;